createdAt,value
2023-02-20T00:03:41.288Z,9.93
2023-02-20T00:08:44.003Z,9.18
2023-02-20T00:13:49.842Z,10.82
2023-02-20T00:18:52.601Z,11.55
2023-02-20T00:23:55.359Z,11.00
2023-02-20T00:28:59.569Z,10.10
2023-02-20T00:34:02.303Z,10.82
2023-02-20T00:39:05.140Z,10.63
2023-02-20T00:44:09.646Z,10.00
2023-02-20T00:49:12.421Z,10.20
2023-02-20T00:54:24.149Z,10.13
2023-02-20T00:59:28.831Z,9.38
2023-02-20T01:04:31.797Z,10.23
2023-02-20T01:09:34.558Z,9.63
2023-02-20T01:14:39.122Z,9.45
2023-02-20T01:19:42.818Z,10.13
2023-02-20T01:24:45.569Z,9.82
2023-02-20T01:29:52.776Z,9.20
2023-02-20T01:34:56.162Z,9.07
2023-02-20T01:39:58.884Z,8.60
2023-02-20T01:45:21.208Z,9.02
2023-02-20T01:50:28.045Z,9.88
2023-02-20T01:55:38.443Z,8.43
2023-02-20T02:00:43.535Z,9.70
2023-02-20T02:05:49.562Z,8.85
2023-02-20T02:11:00.184Z,9.68
2023-02-20T02:16:15.807Z,9.38
2023-02-20T02:21:53.411Z,8.70
2023-02-20T02:27:48.002Z,7.15
2023-02-20T02:33:07.998Z,7.13
2023-02-20T02:38:18.405Z,7.25
2023-02-20T02:43:28.739Z,8.15
2023-02-20T02:48:36.718Z,7.30
2023-02-20T02:53:40.980Z,7.72
2023-02-20T02:58:43.749Z,7.68
2023-02-20T03:03:49.292Z,8.75
2023-02-20T03:08:59.985Z,8.77
2023-02-20T03:14:26.546Z,7.88
2023-02-20T03:19:34.681Z,9.70
2023-02-20T03:24:55.155Z,8.52
2023-02-20T03:30:03.744Z,10.25
2023-02-20T03:35:25.368Z,9.38
2023-02-20T03:40:49.519Z,9.48
2023-02-20T03:45:54.275Z,10.68
2023-02-20T03:50:57.652Z,11.50
2023-02-20T03:56:09.995Z,11.98
2023-02-20T04:01:17.743Z,11.57
2023-02-20T04:06:23.205Z,12.60
2023-02-20T04:11:32.868Z,11.80
2023-02-20T04:16:40.928Z,11.18
2023-02-20T04:21:49.938Z,13.20
2023-02-20T04:26:55.015Z,12.48
2023-02-20T04:31:57.976Z,11.70
2023-02-20T04:37:09.557Z,12.52
2023-02-20T04:42:14.569Z,11.13
2023-02-20T04:47:19.729Z,15.55
2023-02-20T04:52:24.487Z,12.13
2023-02-20T04:57:29.647Z,11.93
2023-02-20T05:02:32.765Z,11.77
2023-02-20T05:07:35.496Z,11.85
2023-02-20T05:12:39.592Z,11.90
2023-02-20T05:17:42.357Z,12.80
2023-02-20T05:22:46.495Z,12.55
2023-02-20T05:27:50.595Z,11.88
2023-02-20T05:32:53.400Z,12.15
2023-02-20T05:37:56.225Z,11.52
2023-02-20T05:43:00.327Z,13.02
2023-02-20T05:48:03.165Z,11.88
2023-02-20T05:53:06.245Z,10.43
2023-02-20T05:58:10.519Z,11.13
2023-02-20T06:03:15.108Z,10.13
2023-02-20T06:08:17.872Z,9.90
2023-02-20T06:13:22.106Z,10.80
2023-02-20T06:18:24.827Z,9.25
2023-02-20T06:23:27.562Z,9.38
2023-02-20T06:28:32.236Z,9.20
2023-02-20T06:33:35.360Z,8.38
2023-02-20T06:38:38.121Z,9.07
2023-02-20T06:43:42.289Z,7.25
2023-02-20T06:48:46.475Z,7.53
2023-02-20T06:53:49.997Z,7.55
2023-02-20T06:58:55.446Z,6.38
2023-02-20T07:04:01.190Z,7.88
2023-02-20T07:09:05.239Z,7.80
2023-02-20T07:14:09.499Z,9.57
2023-02-20T07:19:12.486Z,9.38
2023-02-20T07:24:15.918Z,10.88
2023-02-20T07:29:20.073Z,9.35
2023-02-20T07:34:22.790Z,9.63
2023-02-20T07:39:26.358Z,16.88
2023-02-20T07:44:30.485Z,15.07
2023-02-20T07:49:33.537Z,11.57
2023-02-20T07:54:37.288Z,8.80
2023-02-20T07:59:41.506Z,7.28
2023-02-20T08:04:44.252Z,6.68
2023-02-20T08:09:48.042Z,6.90
2023-02-20T08:14:52.629Z,7.88
2023-02-20T08:19:55.360Z,6.55
2023-02-20T08:24:59.239Z,6.40
2023-02-20T08:30:03.472Z,6.53
2023-02-20T08:35:07.669Z,7.38
2023-02-20T08:40:11.406Z,7.05
2023-02-20T08:45:16.469Z,7.40
2023-02-20T08:50:20.244Z,6.90
2023-02-20T08:55:23.141Z,7.53
2023-02-20T09:00:28.208Z,6.45
2023-02-20T09:05:31.982Z,6.32
2023-02-20T09:10:35.325Z,5.55
2023-02-20T09:15:40.018Z,5.05
2023-02-20T09:20:43.500Z,6.78
2023-02-20T09:25:47.661Z,7.35
2023-02-20T09:30:54.795Z,5.40
2023-02-20T09:35:57.841Z,6.28
2023-02-20T09:41:02.329Z,5.22
2023-02-20T09:46:14.614Z,5.60
2023-02-20T09:51:22.327Z,6.55
2023-02-20T09:56:30.048Z,7.28
2023-02-20T10:01:36.203Z,5.78
2023-02-20T10:06:39.008Z,5.78
2023-02-20T10:11:59.011Z,7.95
2023-02-20T10:17:11.667Z,5.28
2023-02-20T10:22:21.405Z,4.57
2023-02-20T10:27:31.565Z,5.80
2023-02-20T10:32:44.939Z,6.40
2023-02-20T10:37:54.401Z,5.80
2023-02-20T10:43:03.428Z,5.78
2023-02-20T10:48:10.949Z,4.25
2023-02-20T10:53:21.067Z,5.32
2023-02-20T10:58:29.296Z,4.38
2023-02-20T11:03:41.100Z,5.10
2023-02-20T11:08:44.066Z,4.32
2023-02-20T11:13:47.325Z,4.53
2023-02-20T11:18:58.026Z,3.97
2023-02-20T11:24:19.517Z,4.47
2023-02-20T11:29:25.115Z,4.68
2023-02-20T11:34:31.916Z,4.32
2023-02-20T11:39:36.208Z,4.88
2023-02-20T11:44:39.412Z,4.70
2023-02-20T11:49:44.414Z,4.30
2023-02-20T11:54:48.236Z,4.65
2023-02-20T11:59:52.722Z,5.00
2023-02-20T12:05:08.573Z,5.78
2023-02-20T12:10:23.441Z,6.18
2023-02-20T12:15:29.093Z,5.65
2023-02-20T12:20:38.445Z,6.25
2023-02-20T12:25:53.392Z,6.18
2023-02-20T12:31:12.780Z,6.88
2023-02-20T12:36:27.950Z,5.65
2023-02-20T12:41:58.727Z,5.95
2023-02-20T12:47:16.661Z,6.38
2023-02-20T12:52:48.190Z,5.70
2023-02-20T12:58:07.453Z,5.80
2023-02-20T13:03:16.030Z,4.97
2023-02-20T13:08:27.280Z,6.75
2023-02-20T13:13:39.411Z,5.57
2023-02-20T13:18:50.378Z,6.07
2023-02-20T13:24:27.790Z,6.30
2023-02-20T13:29:31.894Z,6.22
2023-02-20T13:34:37.607Z,6.78
2023-02-20T13:39:43.992Z,6.88
2023-02-20T13:44:47.133Z,5.72
2023-02-20T13:49:58.862Z,10.80
2023-02-20T13:55:05.713Z,6.07
2023-02-20T14:00:24.455Z,6.95
2023-02-20T14:05:30.495Z,5.18
2023-02-20T14:15:46.293Z,4.88
2023-02-20T14:20:49.805Z,5.80
2023-02-20T14:26:01.226Z,5.50
2023-02-20T14:31:06.869Z,10.07
2023-02-20T14:36:36.063Z,4.07
2023-02-20T14:41:51.534Z,5.32
2023-02-20T14:46:56.023Z,4.90
2023-02-20T14:52:16.872Z,5.20
2023-02-20T14:57:21.433Z,4.18
2023-02-20T15:02:34.295Z,4.20
2023-02-20T15:07:40.414Z,3.72
2023-02-20T15:12:45.117Z,4.85
2023-02-20T15:17:47.891Z,4.10
2023-02-20T15:22:50.674Z,4.22
2023-02-20T15:28:12.181Z,5.00
2023-02-20T15:33:16.909Z,4.85
2023-02-20T15:38:19.937Z,6.18
2023-02-20T15:43:38.222Z,3.60
2023-02-20T15:48:47.709Z,4.38
2023-02-20T15:53:53.876Z,3.80
2023-02-20T15:58:58.712Z,4.57
2023-02-20T16:04:02.295Z,4.10
2023-02-20T16:09:05.269Z,4.35
2023-02-20T16:14:10.576Z,4.32
2023-02-20T16:19:17.076Z,4.22
2023-02-20T16:24:21.337Z,5.00
2023-02-20T16:29:33.438Z,5.97
2023-02-20T16:34:38.275Z,3.90
2023-02-20T16:39:41.663Z,4.28
2023-02-20T16:44:47.228Z,5.07
2023-02-20T16:49:50.292Z,5.35
2023-02-20T16:54:54.860Z,3.92
2023-02-20T17:00:01.366Z,4.72
2023-02-20T17:05:04.259Z,5.07
2023-02-20T17:10:08.623Z,5.28
2023-02-20T17:15:14.996Z,6.18
2023-02-20T17:20:19.568Z,4.87
2023-02-20T17:25:25.487Z,7.50
2023-02-20T17:30:29.611Z,5.53
2023-02-20T17:35:32.706Z,8.15
2023-02-20T17:40:35.481Z,7.05
2023-02-20T17:45:39.611Z,6.68
2023-02-20T17:50:42.635Z,8.20
2023-02-20T17:55:45.400Z,9.65
2023-02-20T18:00:49.524Z,11.77
2023-02-20T18:05:52.353Z,11.15
2023-02-20T18:10:55.117Z,11.30
2023-02-20T18:15:59.232Z,12.27
2023-02-20T18:21:02.465Z,12.57
2023-02-20T18:26:05.489Z,14.77
2023-02-20T18:31:10.704Z,13.50
2023-02-20T18:36:13.667Z,15.93
2023-02-20T18:41:16.648Z,13.50
2023-02-20T18:46:28.819Z,17.05
2023-02-20T18:51:33.292Z,17.70
2023-02-20T18:56:38.860Z,18.30
2023-02-20T19:01:44.101Z,19.15
2023-02-20T19:06:47.401Z,19.25
2023-02-20T19:11:50.545Z,21.33
2023-02-20T19:16:56.611Z,19.25
2023-02-20T19:22:00.940Z,20.80
2023-02-20T19:27:03.818Z,24.45
2023-02-20T19:32:08.258Z,27.77
2023-02-20T19:37:11.222Z,29.02
2023-02-20T19:42:13.963Z,29.63
2023-02-20T19:47:18.565Z,31.27
2023-02-20T19:52:21.367Z,30.42
2023-02-20T19:57:24.211Z,31.98
2023-02-20T20:02:28.398Z,35.38
2023-02-20T20:07:32.490Z,33.53
2023-02-20T20:12:50.795Z,33.30
2023-02-20T20:17:57.058Z,32.10
2023-02-20T20:23:02.424Z,34.73
2023-02-20T20:28:07.372Z,34.65
2023-02-20T20:33:26.596Z,32.63
2023-02-20T20:38:29.445Z,35.15
2023-02-20T20:43:32.253Z,33.35
2023-02-20T20:48:38.485Z,34.67
2023-02-20T20:53:41.228Z,34.85
2023-02-20T20:58:45.369Z,37.78
2023-02-20T21:03:49.707Z,36.95
2023-02-20T21:08:52.984Z,34.28
2023-02-20T21:13:56.556Z,37.10
2023-02-20T21:19:00.993Z,35.20
2023-02-20T21:24:04.333Z,37.33
2023-02-20T21:29:07.907Z,37.15
2023-02-20T21:34:12.766Z,35.53
2023-02-20T21:39:15.684Z,33.28
2023-02-20T21:44:28.834Z,35.30
2023-02-20T21:49:34.484Z,35.70
2023-02-20T21:54:37.591Z,37.50
2023-02-20T21:59:39.219Z,36.55
2023-02-20T22:04:42.166Z,39.42
2023-02-20T22:10:03.161Z,35.47
2023-02-20T22:15:24.280Z,43.13
2023-02-20T22:20:45.779Z,37.92
2023-02-20T22:26:06.788Z,41.33
2023-02-20T22:31:27.142Z,39.80
2023-02-20T22:36:49.530Z,40.25
2023-02-20T22:42:10.294Z,37.25
2023-02-20T22:47:30.980Z,39.92
2023-02-20T22:52:53.666Z,38.53
2023-02-20T22:58:14.004Z,38.15
2023-02-20T23:03:34.462Z,36.90
2023-02-20T23:08:56.286Z,38.85
2023-02-20T23:14:16.430Z,38.30
2023-02-20T23:19:36.693Z,38.50
2023-02-20T23:24:58.446Z,46.35
2023-02-20T23:30:19.003Z,42.58
2023-02-20T23:35:39.531Z,42.35
2023-02-20T23:41:01.592Z,37.28
2023-02-20T23:46:23.172Z,39.17
2023-02-20T23:51:43.529Z,37.67
2023-02-20T23:57:05.508Z,36.95
